Time;durP1;ratioP1;P1;durP2;ratioP2;P2;SDS_P1;SDS_P2;PMS_P1;PMS_P2;Temp;Humidity;BMP_temperature;BMP_pressure;BME280_temperature;BME280_humidity;BME280_pressure;Samples;Min_cycle;Max_cycle;Signal;HPM_P1;HPM_P2
2021/11/14 00:00:59;;;;;;;6.10;5.70;;;;;;;5.81;100.00;95463.72;5047736;28;20253;-75
2021/11/14 00:03:29;;;;;;;6.03;5.53;;;;;;;5.80;100.00;95454.22;5047277;28;20258;-75
2021/11/14 00:05:58;;;;;;;8.03;7.23;;;;;;;5.82;100.00;95449.66;5051657;28;20678;-75
2021/11/14 00:08:26;;;;;;;6.20;5.70;;;;;;;5.82;100.00;95465.34;5048998;28;20230;-75
2021/11/14 00:10:57;;;;;;;8.23;7.73;;;;;;;5.84;100.00;95466.00;5044828;28;20257;-74
2021/11/14 00:13:26;;;;;;;4.97;4.67;;;;;;;5.82;100.00;95461.91;5046932;28;20226;-74
2021/11/14 00:15:54;;;;;;;4.90;4.60;;;;;;;5.80;100.00;95456.84;5047120;28;20225;-74
2021/11/14 00:18:24;;;;;;;6.13;5.63;;;;;;;5.85;100.00;95469.44;5046961;28;20237;-74
2021/11/14 00:20:53;;;;;;;5.90;5.50;;;;;;;5.84;100.00;95463.38;5046366;28;20222;-74
2021/11/14 00:23:22;;;;;;;4.80;4.53;;;;;;;5.84;100.00;95468.63;5048792;28;20216;-74
2021/11/14 00:25:50;;;;;;;5.33;4.83;;;;;;;5.82;100.00;95465.34;5046634;28;20374;-74
2021/11/14 00:28:18;;;;;;;5.33;5.03;;;;;;;5.81;100.00;95471.56;5049054;28;20288;-74
2021/11/14 00:30:51;;;;;;;4.83;4.10;;;;;;;5.81;100.00;95463.72;5046647;28;20295;-74
2021/11/14 00:33:21;;;;;;;4.77;4.57;;;;;;;5.81;100.00;95471.56;5047691;28;20325;-75
2021/11/14 00:35:52;;;;;;;4.97;4.53;;;;;;;5.80;100.00;95456.84;5049228;28;20221;-74
2021/11/14 00:38:22;;;;;;;4.00;3.80;;;;;;;5.83;100.00;95460.94;5053265;28;20276;-74
2021/11/14 00:40:52;;;;;;;3.90;3.60;;;;;;;5.82;100.00;95462.72;5060655;28;20272;-74
2021/11/14 00:43:20;;;;;;;3.80;3.57;;;;;;;5.82;100.00;95460.13;5065842;28;20307;-74
2021/11/14 00:45:49;;;;;;;4.70;4.40;;;;;;;5.82;100.00;95462.72;5064501;28;20218;-74
2021/11/14 00:48:17;;;;;;;4.20;3.90;;;;;;;5.82;100.00;95462.72;5059503;28;20611;-74
2021/11/14 00:50:47;;;;;;;5.60;5.20;;;;;;;5.82;100.00;95462.72;5066104;28;20244;-74
2021/11/14 00:53:17;;;;;;;5.80;5.50;;;;;;;5.81;100.00;95465.53;5060238;28;20223;-74
2021/11/14 00:55:49;;;;;;;4.67;4.37;;;;;;;5.78;100.00;95464.06;5057616;28;20230;-74
2021/11/14 00:58:17;;;;;;;4.10;3.87;;;;;;;5.79;100.00;95457.00;5060912;28;20215;-74
2021/11/14 01:00:46;;;;;;;5.20;4.90;;;;;;;5.77;100.00;95464.22;5055950;28;20218;-73
2021/11/14 01:03:15;;;;;;;5.10;4.70;;;;;;;5.78;100.00;95471.09;5059095;28;20421;-74
2021/11/14 01:05:43;;;;;;;5.37;4.73;;;;;;;5.79;100.00;95467.47;5059792;28;20230;-74
2021/11/14 01:08:12;;;;;;;5.53;5.13;;;;;;;5.80;100.00;95476.97;5065338;28;20287;-75
2021/11/14 01:10:44;;;;;;;4.63;4.33;;;;;;;5.79;100.00;95470.09;5061467;28;20662;-73
2021/11/14 01:13:14;;;;;;;5.40;4.30;;;;;;;5.79;100.00;95470.09;5061105;28;20218;-74
2021/11/14 01:15:43;;;;;;;4.73;4.40;;;;;;;5.81;100.00;95474.19;5057670;28;20258;-74
2021/11/14 01:18:13;;;;;;;3.83;3.63;;;;;;;5.78;100.00;95471.09;5079508;28;20218;-74
2021/11/14 01:20:44;;;;;;;4.73;4.43;;;;;;;5.77;100.00;95478.13;5057378;28;20710;-74
2021/11/14 01:23:13;;;;;;;4.67;4.37;;;;;;;5.79;100.00;95475.34;5060583;28;20266;-74
2021/11/14 01:25:41;;;;;;;5.47;5.07;;;;;;;5.83;100.00;95477.47;5061350;28;20226;-74
2021/11/14 01:28:09;;;;;;;7.17;5.73;;;;;;;5.90;100.00;95473.28;5068284;28;20242;-73
2021/11/14 01:30:41;;;;;;;7.83;7.23;;;;;;;5.96;100.00;95472.63;5066844;28;20241;-74
2021/11/14 01:33:11;;;;;;;5.90;5.43;;;;;;;5.90;100.00;95483.75;5057981;28;20605;-74
2021/11/14 01:35:39;;;;;;;6.00;5.53;;;;;;;5.87;100.00;95478.81;5068300;28;20780;-74
2021/11/14 01:38:09;;;;;;;5.17;4.77;;;;;;;5.86;100.00;95482.41;5080147;28;20236;-74
2021/11/14 01:40:41;;;;;;;9.90;6.80;;;;;;;5.84;100.00;95481.72;5051106;28;20628;-74
2021/11/14 01:43:11;;;;;;;5.70;5.30;;;;;;;5.83;100.00;95487.94;5051201;28;20307;-74
2021/11/14 01:45:42;;;;;;;5.47;5.07;;;;;;;5.80;100.00;95488.28;5049355;28;20222;-73
2021/11/14 01:48:10;;;;;;;5.97;5.47;;;;;;;5.75;100.00;95480.06;5052784;28;20699;-74
2021/11/14 01:50:41;;;;;;;6.40;5.90;;;;;;;5.80;100.00;95482.22;5052633;28;20245;-74
2021/11/14 01:53:09;;;;;;;5.97;5.47;;;;;;;5.84;100.00;95488.75;5059724;28;20226;-74
2021/11/14 01:55:41;;;;;;;5.10;4.70;;;;;;;5.85;100.00;95486.00;5062230;28;20226;-74
2021/11/14 01:58:10;;;;;;;17.43;5.20;;;;;;;5.85;100.00;95488.63;5067842;28;20284;-74
2021/11/14 02:00:44;;;;;;;6.47;4.80;;;;;;;5.87;100.00;95483.22;5078272;28;20789;-74
2021/11/14 02:03:13;;;;;;;4.57;4.27;;;;;;;5.87;100.00;95484.03;5050503;28;20305;-73
2021/11/14 02:05:42;;;;;;;4.80;4.40;;;;;;;5.88;100.00;95482.25;5048862;28;20605;-74
2021/11/14 02:08:11;;;;;;;4.80;4.50;;;;;;;5.87;100.00;95478.00;5064768;28;20310;-74
2021/11/14 02:10:41;;;;;;;5.17;4.83;;;;;;;5.86;100.00;95477.16;5051032;28;20838;-74
2021/11/14 02:13:10;;;;;;;7.10;6.50;;;;;;;5.87;100.00;95473.56;5053407;28;20301;-74
2021/11/14 02:15:41;;;;;;;4.60;4.40;;;;;;;5.85;100.00;95470.28;5050844;28;20232;-74
2021/11/14 02:18:12;;;;;;;6.13;5.73;;;;;;;5.87;100.00;95473.56;5050111;28;20226;-75
2021/11/14 02:20:43;;;;;;;6.20;5.77;;;;;;;5.85;100.00;95475.53;5048312;28;20226;-74
2021/11/14 02:23:13;;;;;;;6.50;5.40;;;;;;;5.86;100.00;95477.16;5050060;28;20715;-74
2021/11/14 02:25:41;;;;;;;6.57;6.10;;;;;;;5.86;100.00;95477.16;5052099;28;20707;-75
2021/11/14 02:28:09;;;;;;;7.00;6.37;;;;;;;5.84;100.00;95473.03;5053300;28;20222;-74
2021/11/14 02:30:38;;;;;;;4.83;4.53;;;;;;;5.83;100.00;95481.88;5050459;28;20226;-74
2021/11/14 02:33:06;;;;;;;6.20;5.80;;;;;;;5.81;100.00;95474.19;5050714;28;20337;-74
2021/11/14 02:35:44;;;;;;;5.57;5.23;;;;;;;5.83;100.00;95477.47;5047041;28;20222;-74
2021/11/14 02:38:13;;;;;;;5.73;5.23;;;;;;;5.84;100.00;95473.03;5051052;28;20471;-74
2021/11/14 02:40:42;;;;;;;5.43;5.13;;;;;;;5.84;100.00;95473.03;5050560;28;20226;-74
2021/11/14 02:43:11;;;;;;;5.67;5.30;;;;;;;5.86;100.00;95465.88;5052871;28;20252;-75
2021/11/14 02:45:40;;;;;;;5.83;5.53;;;;;;;5.87;100.00;95472.75;5086865;27;20512;-74
2021/11/14 02:48:10;;;;;;;6.83;6.10;;;;;;;5.88;100.00;95472.59;5049124;28;20214;-75
2021/11/14 02:50:40;;;;;;;6.10;5.70;;;;;;;5.88;100.00;95469.97;5032948;28;20223;-74
2021/11/14 02:53:10;;;;;;;6.13;5.70;;;;;;;5.85;100.00;95465.06;5043019;28;20314;-74
2021/11/14 02:55:39;;;;;;;5.47;5.07;;;;;;;5.87;100.00;95481.41;5031298;28;20573;-74
2021/11/14 02:58:08;;;;;;;6.87;6.47;;;;;;;5.84;100.00;95476.47;5048260;28;20315;-74
2021/11/14 03:00:41;;;;;;;9.30;8.50;;;;;;;5.85;100.00;95483.38;5048435;28;20222;-74
2021/11/14 03:03:09;;;;;;;7.00;6.40;;;;;;;5.87;100.00;95480.59;5047849;28;20214;-74
2021/11/14 03:05:39;;;;;;;5.90;5.50;;;;;;;5.90;100.00;95482.91;5045379;28;20280;-74
2021/11/14 03:08:11;;;;;;;6.60;6.20;;;;;;;5.87;100.00;95475.38;5043004;28;20226;-74
2021/11/14 03:10:41;;;;;;;6.50;6.10;;;;;;;5.86;100.00;95479.78;5048886;28;20726;-75
2021/11/14 03:13:11;;;;;;;11.33;8.43;;;;;;;5.85;100.00;95483.38;5051292;28;20248;-74
2021/11/14 03:15:42;;;;;;;7.43;6.97;;;;;;;5.86;100.00;95485.03;5060399;28;20323;-74
2021/11/14 03:18:11;;;;;;;7.43;6.90;;;;;;;5.88;100.00;95483.06;5062485;28;20600;-74
2021/11/14 03:20:43;;;;;;;5.63;5.17;;;;;;;5.90;100.00;95494.22;5050131;28;20268;-74
2021/11/14 03:23:13;;;;;;;5.83;5.43;;;;;;;5.91;100.00;95490.63;5057010;28;20237;-74
2021/11/14 03:25:43;;;;;;;6.70;6.30;;;;;;;5.94;100.00;95485.09;5061466;28;20421;-74
2021/11/14 03:28:11;;;;;;;5.83;5.53;;;;;;;5.92;100.00;95489.63;5066802;28;20241;-74
2021/11/14 03:30:40;;;;;;;6.73;6.33;;;;;;;5.91;100.00;95489.81;5065275;28;20249;-74
2021/11/14 03:33:11;;;;;;;6.57;6.10;;;;;;;5.90;100.00;95493.38;5060948;28;20278;-74
2021/11/14 03:35:42;;;;;;;6.83;6.40;;;;;;;5.91;100.00;95493.25;5063488;28;20217;-75
2021/11/14 03:38:14;;;;;;;6.90;6.37;;;;;;;5.92;100.00;95502.72;5075492;28;20276;-75
2021/11/14 03:40:43;;;;;;;6.30;5.73;;;;;;;5.92;100.00;95497.50;5058961;28;20300;-74
2021/11/14 03:43:11;;;;;;;6.80;6.30;;;;;;;5.93;100.00;95491.28;5064955;28;20293;-74
2021/11/14 03:45:41;;;;;;;6.33;5.93;;;;;;;5.95;100.00;95497.19;5064919;28;20296;-74
2021/11/14 03:48:10;;;;;;;6.10;5.70;;;;;;;5.94;100.00;95494.72;5072702;28;20299;-74
2021/11/14 03:50:39;;;;;;;6.47;5.97;;;;;;;5.96;100.00;95503.25;5065265;28;20333;-74
2021/11/14 03:53:09;;;;;;;7.53;6.83;;;;;;;5.95;100.00;95502.44;5051229;28;20292;-74
2021/11/14 03:55:39;;;;;;;6.40;6.00;;;;;;;5.97;100.00;95505.72;5056044;28;20279;-74
2021/11/14 03:58:08;;;;;;;6.87;6.47;;;;;;;5.98;100.00;95507.34;5057548;28;20317;-74
2021/11/14 04:00:41;;;;;;;7.07;6.57;;;;;;;5.99;100.00;95501.13;5063685;28;20596;-74
2021/11/14 04:03:11;;;;;;;5.80;5.43;;;;;;;6.02;100.00;95496.53;5057854;28;20218;-75
2021/11/14 04:05:39;;;;;;;6.37;5.77;;;;;;;6.03;100.00;95498.19;5065742;28;20775;-74
2021/11/14 04:08:09;;;;;;;6.53;6.00;;;;;;;6.02;100.00;95494.75;5066100;28;20778;-74
2021/11/14 04:10:39;;;;;;;5.90;5.50;;;;;;;6.01;100.00;95502.75;5062294;28;20309;-74
2021/11/14 04:13:08;;;;;;;6.30;5.83;;;;;;;6.03;100.00;95503.41;5063304;28;20276;-74
2021/11/14 04:15:37;;;;;;;6.30;5.73;;;;;;;6.03;100.00;95501.63;5063727;28;20242;-74
2021/11/14 04:18:05;;;;;;;6.80;6.10;;;;;;;6.02;100.00;95507.84;5061422;28;20723;-74
2021/11/14 04:20:35;;;;;;;7.10;6.60;;;;;;;6.02;100.00;95507.00;5050025;28;20276;-74
2021/11/14 04:23:04;;;;;;;7.60;7.00;;;;;;;5.99;100.00;95498.50;5056728;28;20233;-74
2021/11/14 04:25:32;;;;;;;7.90;7.40;;;;;;;5.99;100.00;95508.16;5053607;28;20226;-74
2021/11/14 04:28:02;;;;;;;6.50;6.03;;;;;;;6.00;100.00;95504.56;5047513;28;20751;-75
2021/11/14 04:30:30;;;;;;;8.03;7.40;;;;;;;6.01;100.00;95500.13;5050494;28;20323;-74
2021/11/14 04:32:59;;;;;;;7.67;7.07;;;;;;;5.99;100.00;95505.53;5049923;28;20324;-74
2021/11/14 04:35:27;;;;;;;6.27;5.77;;;;;;;5.99;100.00;95513.41;5047377;28;20311;-74
2021/11/14 04:37:55;;;;;;;7.47;7.00;;;;;;;6.01;100.00;95513.25;5054626;28;20226;-75
2021/11/14 04:40:25;;;;;;;9.30;8.60;;;;;;;6.01;100.00;95511.44;5058434;28;20309;-75
2021/11/14 04:42:54;;;;;;;7.33;6.80;;;;;;;6.04;100.00;95515.56;5053388;28;20230;-74
2021/11/14 04:45:23;;;;;;;7.57;6.97;;;;;;;6.06;100.00;95518.84;5048847;28;20214;-74
2021/11/14 04:47:52;;;;;;;7.97;7.37;;;;;;;6.05;100.00;95518.00;5046067;28;20288;-74
2021/11/14 04:50:23;;;;;;;6.87;6.33;;;;;;;6.06;100.00;95516.22;5049816;28;20313;-75
2021/11/14 04:52:52;;;;;;;7.63;7.07;;;;;;;6.07;100.00;95520.47;5059146;28;20303;-73
2021/11/14 04:55:20;;;;;;;8.80;8.07;;;;;;;6.07;100.00;95518.66;5055703;28;20219;-74
2021/11/14 04:57:51;;;;;;;7.60;6.97;;;;;;;6.07;100.00;95515.22;5063935;28;20246;-74
2021/11/14 05:00:24;;;;;;;9.17;8.47;;;;;;;6.08;100.00;95514.25;5068285;28;20223;-74
2021/11/14 05:02:53;;;;;;;7.30;6.80;;;;;;;6.06;100.00;95508.34;5053430;28;20355;-74
2021/11/14 05:05:21;;;;;;;6.73;6.23;;;;;;;6.07;100.00;95515.22;5055430;28;20221;-74
2021/11/14 05:07:50;;;;;;;7.03;6.53;;;;;;;6.07;100.00;95515.22;5065870;28;20299;-74
2021/11/14 05:10:18;;;;;;;6.70;6.17;;;;;;;6.08;100.00;95516.88;5061665;28;20244;-74
2021/11/14 05:12:46;;;;;;;6.97;6.53;;;;;;;6.07;100.00;95515.22;5064651;28;20218;-74
2021/11/14 05:15:14;;;;;;;7.47;7.03;;;;;;;6.05;100.00;95510.16;5068435;28;20218;-74
2021/11/14 05:17:43;;;;;;;6.83;6.33;;;;;;;6.06;100.00;95511.78;5066594;28;20287;-74
2021/11/14 05:20:12;;;;;;;5.90;5.50;;;;;;;6.07;100.00;95516.03;5056948;28;20254;-74
2021/11/14 05:22:40;;;;;;;5.73;5.43;;;;;;;6.09;100.00;95515.88;5065025;28;20305;-75
2021/11/14 05:25:09;;;;;;;5.47;5.17;;;;;;;6.09;100.00;95510.66;5067185;28;20276;-74
2021/11/14 05:27:37;;;;;;;7.00;6.30;;;;;;;6.10;100.00;95520.13;5062596;28;20250;-74
2021/11/14 05:30:08;;;;;;;4.63;4.43;;;;;;;6.10;100.00;95520.97;5063549;28;20563;-74
2021/11/14 05:32:36;;;;;;;6.10;5.57;;;;;;;6.13;100.00;95525.09;5066408;28;20226;-74
2021/11/14 05:35:08;;;;;;;5.70;5.23;;;;;;;6.15;100.00;95520.50;5062627;28;20249;-74
2021/11/14 05:37:36;;;;;;;5.57;5.30;;;;;;;6.16;100.00;95519.50;5064570;28;20308;-74
2021/11/14 05:40:05;;;;;;;5.50;5.10;;;;;;;6.16;100.00;95519.50;5065011;28;20230;-74
2021/11/14 05:42:33;;;;;;;6.83;6.33;;;;;;;6.17;100.00;95521.16;5065927;28;20237;-74
2021/11/14 05:45:01;;;;;;;6.17;5.77;;;;;;;6.17;100.00;95523.75;5067212;28;20258;-74
2021/11/14 05:47:30;;;;;;;4.60;4.33;;;;;;;6.18;100.00;95518.38;5063172;28;21415;-74
2021/11/14 05:49:57;;;;;;;6.87;6.37;;;;;;;6.19;100.00;95529.66;5057153;28;20226;-74
2021/11/14 05:52:27;;;;;;;6.70;6.10;;;;;;;6.20;100.00;95521.63;5063166;28;20681;-74
2021/11/14 05:54:55;;;;;;;5.43;5.13;;;;;;;6.21;100.00;95525.06;5063783;28;20452;-74
2021/11/14 05:57:24;;;;;;;6.57;6.20;;;;;;;6.21;100.00;95531.13;5064398;28;20230;-74
2021/11/14 05:59:58;;;;;;;6.90;6.40;;;;;;;6.20;100.00;95528.69;5082408;28;20288;-74
2021/11/14 06:02:36;;;;;;;5.10;4.80;;;;;;;6.18;100.00;95533.25;5065262;28;20222;-73
2021/11/14 06:05:13;;;;;;;5.80;5.40;;;;;;;6.16;100.00;95530.81;5062667;28;20735;-71
2021/11/14 06:07:44;;;;;;;6.60;6.10;;;;;;;6.16;100.00;95540.47;5077903;28;20207;-71
2021/11/14 06:10:13;;;;;;;8.00;7.50;;;;;;;6.14;100.00;95542.44;5058949;28;20229;-71
2021/11/14 06:12:42;;;;;;;6.20;5.80;;;;;;;6.13;100.00;95546.84;5064002;28;20540;-70
2021/11/14 06:15:12;;;;;;;7.23;6.63;;;;;;;6.15;100.00;95554.56;5065908;28;20218;-71
2021/11/14 06:17:40;;;;;;;8.40;7.70;;;;;;;6.15;100.00;95549.31;5066031;28;20242;-70
2021/11/14 06:20:09;;;;;;;6.80;6.30;;;;;;;6.16;100.00;95561.44;5058152;28;20222;-71
2021/11/14 06:22:38;;;;;;;7.10;6.60;;;;;;;6.14;100.00;95558.16;5059964;28;20242;-71
2021/11/14 06:25:08;;;;;;;6.80;6.30;;;;;;;6.11;100.00;95563.69;5063079;28;20276;-70
2021/11/14 06:27:36;;;;;;;6.27;5.97;;;;;;;6.07;100.00;95557.13;5063982;28;20242;-70
2021/11/14 06:30:07;;;;;;;5.67;5.17;;;;;;;6.06;100.00;95565.97;5061693;28;20656;-71
2021/11/14 06:32:40;;;;;;;7.03;6.63;;;;;;;6.06;100.00;95565.97;5063052;28;20224;-70
2021/11/14 06:35:10;;;;;;;5.10;4.80;;;;;;;6.07;100.00;95565.00;5062256;28;20272;-71
2021/11/14 06:37:38;;;;;;;6.10;5.70;;;;;;;6.10;100.00;95572.53;5064748;28;20253;-71
2021/11/14 06:40:09;;;;;;;6.70;6.30;;;;;;;6.12;100.00;95567.94;5062265;28;20222;-70
2021/11/14 06:42:37;;;;;;;6.53;6.13;;;;;;;6.13;100.00;95565.19;5062929;28;20290;-71
2021/11/14 06:45:05;;;;;;;5.20;4.90;;;;;;;6.17;100.00;95573.53;5065785;28;20238;-70
2021/11/14 06:47:34;;;;;;;6.63;6.13;;;;;;;6.17;100.00;95581.41;5065564;28;20238;-70
2021/11/14 06:50:10;;;;;;;6.60;5.93;;;;;;;6.16;100.00;95574.53;5062006;28;20301;-71
2021/11/14 06:52:39;;;;;;;6.37;5.77;;;;;;;6.18;100.00;95585.66;5055978;28;20238;-71
2021/11/14 06:55:10;;;;;;;6.07;5.57;;;;;;;6.20;100.00;95584.53;5081303;28;20288;-71
2021/11/14 06:57:38;;;;;;;8.50;7.67;;;;;;;6.25;100.00;95586.69;5057497;28;20222;-71
2021/11/14 07:00:07;;;;;;;10.57;9.60;;;;;;;6.27;100.00;95592.56;5061221;28;20226;-71
2021/11/14 07:02:35;;;;;;;8.60;7.90;;;;;;;6.29;100.00;95595.84;5064807;28;20249;-70
2021/11/14 07:05:05;;;;;;;10.80;8.70;;;;;;;6.31;100.00;95607.03;5053931;28;20264;-71
2021/11/14 07:07:34;;;;;;;10.03;9.17;;;;;;;6.33;100.00;95599.81;5048704;28;20304;-71
2021/11/14 07:10:02;;;;;;;7.50;6.90;;;;;;;6.33;100.00;95610.28;5049698;28;20357;-71
2021/11/14 07:12:31;;;;;;;7.47;6.73;;;;;;;6.35;100.00;95613.56;5049463;28;20460;-70
2021/11/14 07:15:00;;;;;;;8.87;8.13;;;;;;;6.39;100.00;95609.63;5049947;28;20900;-71
2021/11/14 07:17:27;;;;;;;7.40;6.73;;;;;;;6.39;100.00;95620.13;5049986;28;20613;-71
2021/11/14 07:19:56;;;;;;;7.50;6.90;;;;;;;6.39;100.00;95612.25;5049483;28;20361;-71
2021/11/14 07:22:29;;;;;;;7.77;7.13;;;;;;;6.39;100.00;95612.25;5050386;28;20305;-70
2021/11/14 07:24:57;;;;;;;9.70;8.90;;;;;;;6.39;100.00;95609.63;5049045;28;21474;-71
2021/11/14 07:27:25;;;;;;;7.47;6.77;;;;;;;6.41;100.00;95615.56;5053467;28;20227;-71
2021/11/14 07:29:55;;;;;;;9.60;8.60;;;;;;;6.40;100.00;95619.16;5066366;28;20234;-71
2021/11/14 07:32:23;;;;;;;8.93;8.20;;;;;;;6.45;100.00;95621.31;5063979;28;20313;-71
2021/11/14 07:34:51;;;;;;;9.47;8.57;;;;;;;6.48;100.00;95613.09;5059692;28;20242;-71
2021/11/14 07:37:20;;;;;;;8.63;8.03;;;;;;;6.51;100.00;95621.50;5056112;28;20640;-71
2021/11/14 07:39:47;;;;;;;10.97;10.07;;;;;;;6.52;100.00;95623.13;5056269;28;20328;-71
2021/11/14 07:42:16;;;;;;;12.60;10.23;;;;;;;6.54;100.00;95618.53;5048607;28;20290;-71
2021/11/14 07:44:44;;;;;;;9.93;8.60;;;;;;;6.54;100.00;95629.03;5055221;28;20260;-70
2021/11/14 07:47:14;;;;;;;11.47;10.37;;;;;;;6.57;100.00;95628.69;5082507;28;20587;-71
2021/11/14 07:49:42;;;;;;;9.80;9.00;;;;;;;6.56;100.00;95621.00;5061463;28;20226;-71
2021/11/14 07:52:10;;;;;;;10.40;9.40;;;;;;;6.57;100.00;95618.22;5048986;28;20253;-71
2021/11/14 07:54:38;;;;;;;10.77;9.90;;;;;;;6.62;100.00;95624.78;5047966;28;21019;-71
2021/11/14 07:57:06;;;;;;;10.80;9.97;;;;;;;6.62;100.00;95619.53;5048188;28;20255;-71
2021/11/14 07:59:34;;;;;;;11.77;10.87;;;;;;;6.63;100.00;95621.19;5049520;28;20224;-71
2021/11/14 08:02:02;;;;;;;12.33;11.23;;;;;;;6.63;100.00;95621.19;5045842;28;20641;-70
2021/11/14 08:04:32;;;;;;;12.03;10.83;;;;;;;6.64;100.00;95622.81;5045317;28;20226;-70
2021/11/14 08:07:00;;;;;;;14.70;13.33;;;;;;;6.66;100.00;95623.47;5046341;28;20232;-71
2021/11/14 08:09:29;;;;;;;14.93;13.43;;;;;;;6.63;100.00;95626.44;5059542;28;20330;-71
2021/11/14 08:11:57;;;;;;;13.30;12.03;;;;;;;6.64;100.00;95618.41;5059909;28;20257;-71
2021/11/14 08:14:25;;;;;;;13.77;12.53;;;;;;;6.67;100.00;95622.50;5061416;28;20357;-71
2021/11/14 08:16:53;;;;;;;14.47;13.37;;;;;;;6.70;100.00;95623.00;5061458;28;20553;-71
2021/11/14 08:19:21;;;;;;;12.57;11.40;;;;;;;6.71;100.00;95623.84;5057052;28;20219;-70
2021/11/14 08:21:50;;;;;;;13.00;11.80;;;;;;;6.76;100.00;95632.03;5053810;28;20248;-71
2021/11/14 08:24:18;;;;;;;14.50;13.20;;;;;;;6.76;100.00;95632.03;5060634;28;20296;-71
2021/11/14 08:26:46;;;;;;;14.97;13.60;;;;;;;6.76;100.00;95632.03;5056571;28;20246;-70
2021/11/14 08:29:15;;;;;;;14.87;13.43;;;;;;;6.73;100.00;95627.94;5059372;28;20677;-71
2021/11/14 08:31:43;;;;;;;13.40;12.30;;;;;;;6.71;100.00;95632.53;5064478;28;20241;-71
2021/11/14 08:34:11;;;;;;;14.83;13.47;;;;;;;6.71;100.00;95636.94;5066822;28;20420;-71
2021/11/14 08:36:39;;;;;;;13.70;12.30;;;;;;;6.74;100.00;95636.59;5065599;28;20218;-71
2021/11/14 08:39:08;;;;;;;13.83;12.43;;;;;;;6.77;100.00;95644.19;5064659;28;20359;-71
2021/11/14 08:41:37;;;;;;;14.00;12.60;;;;;;;6.79;100.00;95642.22;5067872;28;20305;-70
2021/11/14 08:44:05;;;;;;;16.03;14.43;;;;;;;6.77;100.00;95634.50;5065197;28;20229;-71
2021/11/14 08:46:37;;;;;;;15.03;13.73;;;;;;;6.73;100.00;95632.34;5066095;28;20230;-71
2021/11/14 08:49:05;;;;;;;12.93;11.73;;;;;;;6.73;100.00;95637.59;5064331;28;20312;-71
2021/11/14 08:51:33;;;;;;;13.27;12.17;;;;;;;6.71;100.00;95639.56;5064354;28;20287;-71
2021/11/14 08:54:00;;;;;;;10.73;9.80;;;;;;;6.71;100.00;95642.19;5065312;28;20303;-71
2021/11/14 08:56:31;;;;;;;13.63;12.57;;;;;;;6.74;100.00;95639.22;5065653;28;20271;-71
2021/11/14 08:58:59;;;;;;;14.50;13.10;;;;;;;6.80;100.00;95646.47;5063856;28;20329;-71
2021/11/14 09:01:27;;;;;;;13.17;12.13;;;;;;;6.85;100.00;95641.53;5064361;28;20279;-71
2021/11/14 09:03:56;;;;;;;13.00;11.83;;;;;;;6.88;100.00;95643.88;5062121;28;20249;-71
2021/11/14 09:06:23;;;;;;;19.87;15.70;;;;;;;6.90;100.00;95647.13;5062748;28;20750;-71
2021/11/14 09:08:52;;;;;;;14.87;13.43;;;;;;;6.91;100.00;95650.59;5052473;28;20318;-71
2021/11/14 09:11:20;;;;;;;14.33;12.67;;;;;;;6.94;100.00;95651.06;5048541;28;20219;-71
2021/11/14 09:13:50;;;;;;;14.97;13.47;;;;;;;6.96;100.00;95651.75;5051123;28;20225;-70
2021/11/14 09:16:18;;;;;;;17.07;15.47;;;;;;;6.92;100.00;95652.22;5048440;28;20317;-71
2021/11/14 09:18:46;;;;;;;14.67;13.27;;;;;;;6.98;100.00;95647.16;5047534;28;20254;-71
2021/11/14 09:21:14;;;;;;;13.83;12.40;;;;;;;7.01;100.00;95640.75;5047585;28;20230;-70
2021/11/14 09:23:46;;;;;;;16.97;13.83;;;;;;;7.06;100.00;95649.78;5047879;28;20448;-71
2021/11/14 09:26:14;;;;;;;13.73;12.43;;;;;;;7.12;100.00;95646.50;5045052;28;20521;-71
2021/11/14 09:28:43;;;;;;;13.80;12.60;;;;;;;7.15;100.00;95657.69;5049565;28;20321;-71
2021/11/14 09:31:13;;;;;;;14.20;12.73;;;;;;;7.16;100.00;95648.81;5052819;28;20384;-71
2021/11/14 09:33:44;;;;;;;14.27;12.77;;;;;;;7.10;100.00;95664.22;5049618;28;20243;-71
2021/11/14 09:36:12;;;;;;;17.37;15.60;;;;;;;7.18;100.00;95660.78;5047212;28;20287;-70
2021/11/14 09:38:42;;;;;;;14.43;12.70;;;;;;;7.13;100.00;95661.28;5053922;28;20246;-70
2021/11/14 09:41:10;;;;;;;12.60;11.30;;;;;;;7.13;100.00;95655.19;5048417;28;20218;-71
2021/11/14 09:43:39;;;;;;;14.20;12.70;;;;;;;7.09;100.00;95657.34;5049677;28;20541;-70
2021/11/14 09:46:22;;;;;;;13.83;12.53;;;;;;;7.11;100.00;95650.13;5048504;28;20269;-70
2021/11/14 09:48:50;;;;;;;15.47;14.00;;;;;;;7.16;100.00;95659.31;5051303;28;20514;-71
2021/11/14 09:51:18;;;;;;;15.83;13.50;;;;;;;7.23;100.00;95655.06;5050994;28;20313;-70
2021/11/14 09:53:46;;;;;;;15.10;13.63;;;;;;;7.22;100.00;95658.66;5047781;28;20656;-70
2021/11/14 09:56:14;;;;;;;14.10;12.73;;;;;;;7.15;100.00;95663.75;5050829;28;20283;-71
2021/11/14 09:58:42;;;;;;;13.03;11.73;;;;;;;7.17;100.00;95655.72;5048830;28;20268;-71
2021/11/14 10:01:11;;;;;;;11.73;10.30;;;;;;;7.18;100.00;95659.97;5046413;28;21025;-71
2021/11/14 10:03:40;;;;;;;11.67;10.77;;;;;;;7.17;100.00;95648.66;5047876;28;20291;-71
2021/11/14 10:06:08;;;;;;;13.47;12.13;;;;;;;7.27;100.00;95661.63;5051827;28;20317;-70
2021/11/14 10:08:44;;;;;;;15.90;14.37;;;;;;;7.42;100.00;95654.75;5049891;28;20276;-71
2021/11/14 10:11:13;;;;;;;15.57;13.93;;;;;;;7.55;100.00;95652.41;5048560;28;20226;-70
2021/11/14 10:13:47;;;;;;;13.83;12.60;;;;;;;7.67;100.00;95651.09;5065573;28;20308;-70
2021/11/14 10:16:17;;;;;;;13.70;12.23;;;;;;;7.74;98.89;95653.88;5065427;28;20800;-70
2021/11/14 10:18:52;;;;;;;11.57;10.57;;;;;;;7.83;98.63;95654.69;5060608;28;20765;-70
2021/11/14 10:21:21;;;;;;;11.47;10.27;;;;;;;7.80;97.83;95647.16;5049157;28;20391;-71
2021/11/14 10:23:49;;;;;;;10.07;9.13;;;;;;;7.72;97.30;95644.53;5060589;28;20229;-70
2021/11/14 10:26:18;;;;;;;13.33;11.93;;;;;;;7.77;97.15;95637.78;5050257;28;20308;-70
2021/11/14 10:28:48;;;;;;;14.50;12.97;;;;;;;7.81;96.79;95638.28;5050990;28;20222;-70
2021/11/14 10:31:21;;;;;;;13.13;11.70;;;;;;;7.77;97.19;95636.97;5052102;28;20232;-70
2021/11/14 10:33:51;;;;;;;13.53;12.33;;;;;;;7.67;97.43;95643.22;5054721;28;20224;-70
2021/11/14 10:36:21;;;;;;;12.93;11.83;;;;;;;7.65;97.23;95639.94;5050825;28;20243;-70
2021/11/14 10:38:49;;;;;;;13.33;11.90;;;;;;;7.68;96.32;95649.28;5052357;28;20231;-70
2021/11/14 10:41:18;;;;;;;12.00;11.10;;;;;;;7.76;95.82;95645.81;5048712;28;20775;-70
2021/11/14 10:43:51;;;;;;;12.97;11.77;;;;;;;7.76;95.16;95635.31;5042117;28;20268;-70
2021/11/14 10:46:21;;;;;;;17.53;14.63;;;;;;;7.72;95.90;95634.03;5049847;28;20225;-70
2021/11/14 10:48:51;;;;;;;16.93;15.00;;;;;;;7.68;96.31;95650.13;5050535;28;20226;-70
2021/11/14 10:51:19;;;;;;;14.93;13.40;;;;;;;7.52;96.87;95644.88;5066289;28;20247;-71
2021/11/14 10:53:49;;;;;;;12.70;11.50;;;;;;;7.62;96.21;95645.53;5054857;28;20277;-70
2021/11/14 10:56:18;;;;;;;13.20;11.90;;;;;;;7.68;95.43;95644.88;5046222;28;20305;-70
2021/11/14 10:58:47;;;;;;;15.67;12.43;;;;;;;7.54;95.56;95637.66;5054915;28;20219;-70
2021/11/14 11:01:17;;;;;;;16.97;15.27;;;;;;;7.60;95.63;95641.44;5059410;28;20314;-70
2021/11/14 11:03:48;;;;;;;11.40;10.50;;;;;;;7.61;95.89;95633.38;5059573;28;20241;-70
2021/11/14 11:06:23;;;;;;;12.70;11.63;;;;;;;7.62;96.33;95628.94;5066391;28;20253;-71
2021/11/14 11:08:53;;;;;;;10.60;9.67;;;;;;;7.56;96.85;95622.53;5062846;28;20229;-70
2021/11/14 11:11:42;;;;;;;13.43;12.17;;;;;;;7.66;96.55;95625.81;5052079;28;20224;-70
2021/11/14 11:14:12;;;;;;;11.97;10.80;;;;;;;7.59;96.21;95624.00;5061504;28;20223;-70
2021/11/14 11:16:40;;;;;;;13.77;12.47;;;;;;;7.64;95.82;95622.53;5061784;28;20813;-70
2021/11/14 11:19:10;;;;;;;13.83;12.43;;;;;;;7.52;96.44;95623.88;5045827;28;20226;-70
2021/11/14 11:21:43;;;;;;;14.07;11.83;;;;;;;7.61;96.36;95622.88;5052358;28;20315;-70
2021/11/14 11:24:13;;;;;;;14.33;12.93;;;;;;;7.60;96.00;95626.50;5058157;28;20258;-70
2021/11/14 11:26:55;;;;;;;12.57;11.27;;;;;;;7.53;96.16;95627.31;5053489;28;20799;-70
2021/11/14 11:29:24;;;;;;;12.90;11.60;;;;;;;7.54;96.18;95632.41;5048232;28;20665;-71
2021/11/14 11:31:52;;;;;;;12.87;11.67;;;;;;;7.48;96.59;95638.31;5057264;28;20318;-70
2021/11/14 11:34:22;;;;;;;13.77;12.30;;;;;;;7.40;97.20;95640.94;5051995;28;20226;-70
2021/11/14 11:36:54;;;;;;;11.80;10.60;;;;;;;7.47;97.47;95636.66;5059308;28;20304;-70
2021/11/14 11:39:22;;;;;;;12.53;11.30;;;;;;;7.44;96.76;95637.00;5056193;28;20230;-70